sensor_id;sensor_type;location;lat;lon;timestamp;pressure;altitude;pressure_sealevel;temperature
71463;BMP180;59266;52.608;13.260;2023-07-20T00:00:46;100695.00;;;16.10
71463;BMP180;59266;52.608;13.260;2023-07-20T00:03:14;100696.00;;;16.20
71463;BMP180;59266;52.608;13.260;2023-07-20T00:05:46;100699.00;;;16.10
71463;BMP180;59266;52.608;13.260;2023-07-20T00:08:12;100695.00;;;16.00
71463;BMP180;59266;52.608;13.260;2023-07-20T00:10:41;100694.00;;;16.10
71463;BMP180;59266;52.608;13.260;2023-07-20T00:13:09;100693.00;;;16.10
71463;BMP180;59266;52.608;13.260;2023-07-20T00:15:36;100692.00;;;16.00
71463;BMP180;59266;52.608;13.260;2023-07-20T00:18:04;100698.00;;;15.90
71463;BMP180;59266;52.608;13.260;2023-07-20T00:20:31;100695.00;;;16.00
71463;BMP180;59266;52.608;13.260;2023-07-20T00:22:58;100701.00;;;15.90
71463;BMP180;59266;52.608;13.260;2023-07-20T00:25:25;100704.00;;;15.90
71463;BMP180;59266;52.608;13.260;2023-07-20T00:27:52;100707.00;;;15.80
71463;BMP180;59266;52.608;13.260;2023-07-20T00:30:21;100709.00;;;15.80
71463;BMP180;59266;52.608;13.260;2023-07-20T00:32:48;100716.00;;;15.70
71463;BMP180;59266;52.608;13.260;2023-07-20T00:35:15;100708.00;;;15.60
71463;BMP180;59266;52.608;13.260;2023-07-20T00:37:43;100710.00;;;15.60
71463;BMP180;59266;52.608;13.260;2023-07-20T00:40:10;100707.00;;;15.50
71463;BMP180;59266;52.608;13.260;2023-07-20T00:42:36;100707.00;;;15.50
71463;BMP180;59266;52.608;13.260;2023-07-20T00:45:03;100707.00;;;15.50
71463;BMP180;59266;52.608;13.260;2023-07-20T00:47:32;100709.00;;;15.60
71463;BMP180;59266;52.608;13.260;2023-07-20T00:49:59;100710.00;;;15.60
71463;BMP180;59266;52.608;13.260;2023-07-20T00:52:27;100724.00;;;15.60
71463;BMP180;59266;52.608;13.260;2023-07-20T00:54:55;100715.00;;;15.60
71463;BMP180;59266;52.608;13.260;2023-07-20T00:57:24;100709.00;;;15.60
71463;BMP180;59266;52.608;13.260;2023-07-20T00:59:52;100708.00;;;15.70
71463;BMP180;59266;52.608;13.260;2023-07-20T01:02:22;100707.00;;;15.60
71463;BMP180;59266;52.608;13.260;2023-07-20T01:04:49;100707.00;;;15.50
71463;BMP180;59266;52.608;13.260;2023-07-20T01:07:25;100714.00;;;15.50
71463;BMP180;59266;52.608;13.260;2023-07-20T01:10:14;100706.00;;;15.60
71463;BMP180;59266;52.608;13.260;2023-07-20T01:12:49;100698.00;;;15.60
71463;BMP180;59266;52.608;13.260;2023-07-20T01:15:18;100711.00;;;15.70
71463;BMP180;59266;52.608;13.260;2023-07-20T01:17:46;100707.00;;;15.70
71463;BMP180;59266;52.608;13.260;2023-07-20T01:20:19;100713.00;;;15.70
71463;BMP180;59266;52.608;13.260;2023-07-20T01:29:17;100706.00;;;15.70
71463;BMP180;59266;52.608;13.260;2023-07-20T01:31:52;100705.00;;;15.80
71463;BMP180;59266;52.608;13.260;2023-07-20T01:34:19;100699.00;;;15.90
71463;BMP180;59266;52.608;13.260;2023-07-20T01:36:50;100706.00;;;15.70
71463;BMP180;59266;52.608;13.260;2023-07-20T01:39:20;100709.00;;;15.80
71463;BMP180;59266;52.608;13.260;2023-07-20T01:41:48;100707.00;;;15.80
71463;BMP180;59266;52.608;13.260;2023-07-20T01:44:15;100708.00;;;15.70
71463;BMP180;59266;52.608;13.260;2023-07-20T01:46:42;100707.00;;;15.80
71463;BMP180;59266;52.608;13.260;2023-07-20T01:49:08;100713.00;;;15.90
71463;BMP180;59266;52.608;13.260;2023-07-20T01:51:39;100699.00;;;15.80
71463;BMP180;59266;52.608;13.260;2023-07-20T01:54:05;100699.00;;;15.90
71463;BMP180;59266;52.608;13.260;2023-07-20T01:56:32;100699.00;;;15.80
71463;BMP180;59266;52.608;13.260;2023-07-20T01:58:59;100706.00;;;15.90
71463;BMP180;59266;52.608;13.260;2023-07-20T02:01:26;100704.00;;;15.90
71463;BMP180;59266;52.608;13.260;2023-07-20T02:03:56;100710.00;;;15.70
71463;BMP180;59266;52.608;13.260;2023-07-20T02:06:23;100710.00;;;15.70
71463;BMP180;59266;52.608;13.260;2023-07-20T02:08:50;100715.00;;;15.70
71463;BMP180;59266;52.608;13.260;2023-07-20T02:11:18;100711.00;;;15.80
71463;BMP180;59266;52.608;13.260;2023-07-20T02:13:48;100712.00;;;15.80
71463;BMP180;59266;52.608;13.260;2023-07-20T02:16:17;100717.00;;;15.80
71463;BMP180;59266;52.608;13.260;2023-07-20T02:18:44;100710.00;;;15.80
71463;BMP180;59266;52.608;13.260;2023-07-20T02:21:11;100715.00;;;15.80
71463;BMP180;59266;52.608;13.260;2023-07-20T02:23:40;100716.00;;;15.80
71463;BMP180;59266;52.608;13.260;2023-07-20T02:26:10;100714.00;;;15.80
71463;BMP180;59266;52.608;13.260;2023-07-20T02:28:38;100715.00;;;15.80
71463;BMP180;59266;52.608;13.260;2023-07-20T02:31:06;100718.00;;;15.70
71463;BMP180;59266;52.608;13.260;2023-07-20T02:33:33;100713.00;;;15.60
71463;BMP180;59266;52.608;13.260;2023-07-20T02:35:59;100711.00;;;15.80
71463;BMP180;59266;52.608;13.260;2023-07-20T02:38:26;100711.00;;;15.90
71463;BMP180;59266;52.608;13.260;2023-07-20T02:40:54;100708.00;;;15.90
71463;BMP180;59266;52.608;13.260;2023-07-20T02:43:20;100709.00;;;15.80
71463;BMP180;59266;52.608;13.260;2023-07-20T02:45:50;100711.00;;;15.90
71463;BMP180;59266;52.608;13.260;2023-07-20T02:48:18;100714.00;;;15.70
71463;BMP180;59266;52.608;13.260;2023-07-20T02:50:45;100713.00;;;15.80
71463;BMP180;59266;52.608;13.260;2023-07-20T02:53:12;100715.00;;;15.90
71463;BMP180;59266;52.608;13.260;2023-07-20T02:55:40;100715.00;;;15.80
71463;BMP180;59266;52.608;13.260;2023-07-20T02:58:10;100723.00;;;15.80
71463;BMP180;59266;52.608;13.260;2023-07-20T03:00:36;100721.00;;;15.90
71463;BMP180;59266;52.608;13.260;2023-07-20T03:03:04;100722.00;;;15.80
71463;BMP180;59266;52.608;13.260;2023-07-20T03:05:36;100725.00;;;15.90
71463;BMP180;59266;52.608;13.260;2023-07-20T03:08:05;100720.00;;;15.90
71463;BMP180;59266;52.608;13.260;2023-07-20T03:10:32;100731.00;;;15.80
71463;BMP180;59266;52.608;13.260;2023-07-20T03:12:59;100728.00;;;15.80
71463;BMP180;59266;52.608;13.260;2023-07-20T03:15:28;100731.00;;;15.90
71463;BMP180;59266;52.608;13.260;2023-07-20T03:17:55;100735.00;;;15.90
71463;BMP180;59266;52.608;13.260;2023-07-20T03:20:22;100735.00;;;16.00
71463;BMP180;59266;52.608;13.260;2023-07-20T03:22:50;100740.00;;;16.10
71463;BMP180;59266;52.608;13.260;2023-07-20T03:25:16;100732.00;;;16.10
71463;BMP180;59266;52.608;13.260;2023-07-20T03:27:46;100728.00;;;16.00
71463;BMP180;59266;52.608;13.260;2023-07-20T03:30:14;100736.00;;;16.00
71463;BMP180;59266;52.608;13.260;2023-07-20T03:32:42;100731.00;;;15.90
71463;BMP180;59266;52.608;13.260;2023-07-20T03:35:09;100740.00;;;16.00
71463;BMP180;59266;52.608;13.260;2023-07-20T03:37:37;100738.00;;;16.20
71463;BMP180;59266;52.608;13.260;2023-07-20T03:40:07;100737.00;;;16.20
71463;BMP180;59266;52.608;13.260;2023-07-20T03:42:35;100737.00;;;16.20
71463;BMP180;59266;52.608;13.260;2023-07-20T03:45:02;100742.00;;;16.30
71463;BMP180;59266;52.608;13.260;2023-07-20T03:47:32;100744.00;;;16.30
71463;BMP180;59266;52.608;13.260;2023-07-20T03:49:59;100748.00;;;16.30
71463;BMP180;59266;52.608;13.260;2023-07-20T03:52:26;100737.00;;;16.40
71463;BMP180;59266;52.608;13.260;2023-07-20T03:54:53;100747.00;;;16.30
71463;BMP180;59266;52.608;13.260;2023-07-20T03:57:23;100756.00;;;16.30
71463;BMP180;59266;52.608;13.260;2023-07-20T03:59:49;100752.00;;;16.20
71463;BMP180;59266;52.608;13.260;2023-07-20T04:02:19;100753.00;;;16.20
71463;BMP180;59266;52.608;13.260;2023-07-20T04:04:47;100752.00;;;16.20
71463;BMP180;59266;52.608;13.260;2023-07-20T04:07:14;100751.00;;;16.10
71463;BMP180;59266;52.608;13.260;2023-07-20T04:09:42;100759.00;;;16.10
71463;BMP180;59266;52.608;13.260;2023-07-20T04:12:10;100755.00;;;16.10
71463;BMP180;59266;52.608;13.260;2023-07-20T04:14:38;100752.00;;;16.20
71463;BMP180;59266;52.608;13.260;2023-07-20T04:17:04;100746.00;;;16.00
71463;BMP180;59266;52.608;13.260;2023-07-20T04:19:31;100756.00;;;16.10
71463;BMP180;59266;52.608;13.260;2023-07-20T04:22:00;100759.00;;;16.20
71463;BMP180;59266;52.608;13.260;2023-07-20T04:24:27;100761.00;;;16.20
71463;BMP180;59266;52.608;13.260;2023-07-20T04:26:54;100756.00;;;16.20
71463;BMP180;59266;52.608;13.260;2023-07-20T04:29:21;100753.00;;;16.30
71463;BMP180;59266;52.608;13.260;2023-07-20T04:31:49;100750.00;;;16.30
71463;BMP180;59266;52.608;13.260;2023-07-20T04:34:15;100760.00;;;16.40
71463;BMP180;59266;52.608;13.260;2023-07-20T04:36:45;100761.00;;;16.50
71463;BMP180;59266;52.608;13.260;2023-07-20T04:39:13;100757.00;;;16.40
71463;BMP180;59266;52.608;13.260;2023-07-20T04:41:57;100760.00;;;16.60
71463;BMP180;59266;52.608;13.260;2023-07-20T04:44:24;100751.00;;;16.60
71463;BMP180;59266;52.608;13.260;2023-07-20T04:46:50;100763.00;;;16.50
71463;BMP180;59266;52.608;13.260;2023-07-20T04:49:17;100757.00;;;16.50
71463;BMP180;59266;52.608;13.260;2023-07-20T04:51:45;100765.00;;;16.70
71463;BMP180;59266;52.608;13.260;2023-07-20T04:54:13;100763.00;;;16.80
71463;BMP180;59266;52.608;13.260;2023-07-20T04:56:42;100760.00;;;16.90
71463;BMP180;59266;52.608;13.260;2023-07-20T04:59:09;100765.00;;;17.00
71463;BMP180;59266;52.608;13.260;2023-07-20T05:01:37;100769.00;;;17.00
71463;BMP180;59266;52.608;13.260;2023-07-20T05:04:05;100767.00;;;17.00
71463;BMP180;59266;52.608;13.260;2023-07-20T05:06:34;100768.00;;;17.10
71463;BMP180;59266;52.608;13.260;2023-07-20T05:09:02;100771.00;;;17.20
71463;BMP180;59266;52.608;13.260;2023-07-20T05:11:29;100770.00;;;17.10
71463;BMP180;59266;52.608;13.260;2023-07-20T05:13:56;100771.00;;;17.30
71463;BMP180;59266;52.608;13.260;2023-07-20T05:16:22;100774.00;;;17.30
71463;BMP180;59266;52.608;13.260;2023-07-20T05:18:49;100777.00;;;17.20
71463;BMP180;59266;52.608;13.260;2023-07-20T05:21:18;100771.00;;;17.40
71463;BMP180;59266;52.608;13.260;2023-07-20T05:23:46;100771.00;;;17.30
71463;BMP180;59266;52.608;13.260;2023-07-20T05:26:15;100766.00;;;17.40
71463;BMP180;59266;52.608;13.260;2023-07-20T05:28:44;100771.00;;;17.20
71463;BMP180;59266;52.608;13.260;2023-07-20T05:31:11;100768.00;;;17.10
71463;BMP180;59266;52.608;13.260;2023-07-20T05:33:38;100768.00;;;16.90
71463;BMP180;59266;52.608;13.260;2023-07-20T05:36:05;100774.00;;;17.20
71463;BMP180;59266;52.608;13.260;2023-07-20T05:38:31;100775.00;;;17.30
71463;BMP180;59266;52.608;13.260;2023-07-20T05:40:59;100768.00;;;17.90
71463;BMP180;59266;52.608;13.260;2023-07-20T05:43:28;100772.00;;;17.70
71463;BMP180;59266;52.608;13.260;2023-07-20T05:45:55;100780.00;;;17.70
71463;BMP180;59266;52.608;13.260;2023-07-20T05:48:23;100773.00;;;17.50
71463;BMP180;59266;52.608;13.260;2023-07-20T05:50:50;100766.00;;;18.00
71463;BMP180;59266;52.608;13.260;2023-07-20T05:53:17;100776.00;;;18.10
71463;BMP180;59266;52.608;13.260;2023-07-20T05:55:44;100780.00;;;18.20
71463;BMP180;59266;52.608;13.260;2023-07-20T05:58:12;100772.00;;;18.30
71463;BMP180;59266;52.608;13.260;2023-07-20T06:00:38;100769.00;;;18.60
71463;BMP180;59266;52.608;13.260;2023-07-20T06:03:06;100774.00;;;18.80
71463;BMP180;59266;52.608;13.260;2023-07-20T06:05:33;100780.00;;;18.60
71463;BMP180;59266;52.608;13.260;2023-07-20T06:08:01;100787.00;;;19.10
71463;BMP180;59266;52.608;13.260;2023-07-20T06:10:28;100777.00;;;18.60
71463;BMP180;59266;52.608;13.260;2023-07-20T06:12:54;100783.00;;;18.60
71463;BMP180;59266;52.608;13.260;2023-07-20T06:15:34;100789.00;;;19.20
71463;BMP180;59266;52.608;13.260;2023-07-20T06:18:04;100781.00;;;19.70
71463;BMP180;59266;52.608;13.260;2023-07-20T06:20:32;100790.00;;;19.30
71463;BMP180;59266;52.608;13.260;2023-07-20T06:22:59;100792.00;;;19.10
71463;BMP180;59266;52.608;13.260;2023-07-20T06:25:28;100790.00;;;19.80
71463;BMP180;59266;52.608;13.260;2023-07-20T06:27:57;100778.00;;;21.30
71463;BMP180;59266;52.608;13.260;2023-07-20T06:30:26;100795.00;;;22.10
71463;BMP180;59266;52.608;13.260;2023-07-20T06:32:53;100776.00;;;22.70
71463;BMP180;59266;52.608;13.260;2023-07-20T06:35:20;100780.00;;;23.50
71463;BMP180;59266;52.608;13.260;2023-07-20T06:37:47;100779.00;;;26.60
71463;BMP180;59266;52.608;13.260;2023-07-20T06:40:14;100785.00;;;25.70
71463;BMP180;59266;52.608;13.260;2023-07-20T06:42:45;100784.00;;;28.00
71463;BMP180;59266;52.608;13.260;2023-07-20T06:45:15;100795.00;;;27.10
71463;BMP180;59266;52.608;13.260;2023-07-20T06:47:41;100778.00;;;26.20
71463;BMP180;59266;52.608;13.260;2023-07-20T06:50:09;100810.00;;;27.70
71463;BMP180;59266;52.608;13.260;2023-07-20T06:52:43;100786.00;;;26.40
71463;BMP180;59266;52.608;13.260;2023-07-20T06:55:09;100815.00;;;25.30
71463;BMP180;59266;52.608;13.260;2023-07-20T06:57:37;100815.00;;;24.50
71463;BMP180;59266;52.608;13.260;2023-07-20T07:00:04;100810.00;;;24.10
71463;BMP180;59266;52.608;13.260;2023-07-20T07:02:33;100791.00;;;24.40
71463;BMP180;59266;52.608;13.260;2023-07-20T07:05:02;100777.00;;;27.70
71463;BMP180;59266;52.608;13.260;2023-07-20T07:07:46;100774.00;;;28.50
71463;BMP180;59266;52.608;13.260;2023-07-20T07:10:13;100791.00;;;27.80
71463;BMP180;59266;52.608;13.260;2023-07-20T07:12:40;100789.00;;;28.00
71463;BMP180;59266;52.608;13.260;2023-07-20T07:15:07;100817.00;;;27.20
71463;BMP180;59266;52.608;13.260;2023-07-20T07:17:35;100813.00;;;25.80
71463;BMP180;59266;52.608;13.260;2023-07-20T07:20:05;100810.00;;;25.40
71463;BMP180;59266;52.608;13.260;2023-07-20T07:22:34;100828.00;;;24.70
71463;BMP180;59266;52.608;13.260;2023-07-20T07:25:01;100821.00;;;23.80
71463;BMP180;59266;52.608;13.260;2023-07-20T07:27:29;100823.00;;;22.60
71463;BMP180;59266;52.608;13.260;2023-07-20T07:29:56;100816.00;;;24.70
71463;BMP180;59266;52.608;13.260;2023-07-20T07:32:24;100792.00;;;26.70
71463;BMP180;59266;52.608;13.260;2023-07-20T07:34:52;100785.00;;;27.10
71463;BMP180;59266;52.608;13.260;2023-07-20T07:37:18;100783.00;;;29.20
71463;BMP180;59266;52.608;13.260;2023-07-20T07:39:46;100814.00;;;28.30
71463;BMP180;59266;52.608;13.260;2023-07-20T07:42:14;100810.00;;;28.20
71463;BMP180;59266;52.608;13.260;2023-07-20T07:44:43;100814.00;;;28.50
71463;BMP180;59266;52.608;13.260;2023-07-20T07:47:12;100815.00;;;26.90
71463;BMP180;59266;52.608;13.260;2023-07-20T07:49:39;100811.00;;;25.20
71463;BMP180;59266;52.608;13.260;2023-07-20T07:52:06;100818.00;;;25.40
71463;BMP180;59266;52.608;13.260;2023-07-20T07:54:32;100826.00;;;24.20
71463;BMP180;59266;52.608;13.260;2023-07-20T07:56:59;100825.00;;;22.90
71463;BMP180;59266;52.608;13.260;2023-07-20T07:59:25;100834.00;;;23.20
71463;BMP180;59266;52.608;13.260;2023-07-20T08:01:52;100831.00;;;22.40
71463;BMP180;59266;52.608;13.260;2023-07-20T08:04:19;100824.00;;;23.00
71463;BMP180;59266;52.608;13.260;2023-07-20T08:06:47;100802.00;;;25.20
71463;BMP180;59266;52.608;13.260;2023-07-20T08:09:14;100824.00;;;25.10
71463;BMP180;59266;52.608;13.260;2023-07-20T08:11:41;100831.00;;;24.50
71463;BMP180;59266;52.608;13.260;2023-07-20T08:14:08;100823.00;;;24.50
71463;BMP180;59266;52.608;13.260;2023-07-20T08:16:35;100824.00;;;24.90
71463;BMP180;59266;52.608;13.260;2023-07-20T08:19:02;100823.00;;;25.70
71463;BMP180;59266;52.608;13.260;2023-07-20T08:21:29;100827.00;;;24.30
71463;BMP180;59266;52.608;13.260;2023-07-20T08:23:56;100831.00;;;23.40
71463;BMP180;59266;52.608;13.260;2023-07-20T08:26:23;100832.00;;;25.40
71463;BMP180;59266;52.608;13.260;2023-07-20T08:28:50;100845.00;;;24.10
71463;BMP180;59266;52.608;13.260;2023-07-20T08:31:19;100847.00;;;24.30
71463;BMP180;59266;52.608;13.260;2023-07-20T08:33:46;100847.00;;;23.10
71463;BMP180;59266;52.608;13.260;2023-07-20T08:36:13;100803.00;;;25.40
71463;BMP180;59266;52.608;13.260;2023-07-20T08:38:41;100837.00;;;29.50
71463;BMP180;59266;52.608;13.260;2023-07-20T08:41:09;100836.00;;;28.30
71463;BMP180;59266;52.608;13.260;2023-07-20T08:43:37;100810.00;;;27.50
71463;BMP180;59266;52.608;13.260;2023-07-20T08:46:04;100815.00;;;27.90
71463;BMP180;59266;52.608;13.260;2023-07-20T08:48:31;100834.00;;;30.00
71463;BMP180;59266;52.608;13.260;2023-07-20T08:50:58;100803.00;;;29.60
71463;BMP180;59266;52.608;13.260;2023-07-20T08:53:28;100806.00;;;31.70
71463;BMP180;59266;52.608;13.260;2023-07-20T08:55:55;100815.00;;;33.80
71463;BMP180;59266;52.608;13.260;2023-07-20T08:58:23;100843.00;;;34.00
71463;BMP180;59266;52.608;13.260;2023-07-20T09:00:50;100824.00;;;33.90
71463;BMP180;59266;52.608;13.260;2023-07-20T09:03:19;100796.00;;;31.00
71463;BMP180;59266;52.608;13.260;2023-07-20T09:05:46;100818.00;;;30.50
71463;BMP180;59266;52.608;13.260;2023-07-20T09:08:14;100835.00;;;31.70
71463;BMP180;59266;52.608;13.260;2023-07-20T09:10:41;100843.00;;;27.90
71463;BMP180;59266;52.608;13.260;2023-07-20T09:13:09;100854.00;;;27.30
71463;BMP180;59266;52.608;13.260;2023-07-20T09:15:36;100855.00;;;27.20
71463;BMP180;59266;52.608;13.260;2023-07-20T09:18:03;100863.00;;;25.70
71463;BMP180;59266;52.608;13.260;2023-07-20T09:20:31;100868.00;;;25.10
71463;BMP180;59266;52.608;13.260;2023-07-20T09:23:04;100868.00;;;23.10
71463;BMP180;59266;52.608;13.260;2023-07-20T09:25:32;100862.00;;;22.90
71463;BMP180;59266;52.608;13.260;2023-07-20T09:28:02;100865.00;;;22.90
71463;BMP180;59266;52.608;13.260;2023-07-20T09:30:30;100867.00;;;23.20
71463;BMP180;59266;52.608;13.260;2023-07-20T09:32:59;100872.00;;;22.30
71463;BMP180;59266;52.608;13.260;2023-07-20T09:35:26;100880.00;;;21.90
71463;BMP180;59266;52.608;13.260;2023-07-20T09:38:08;100879.00;;;22.20
71463;BMP180;59266;52.608;13.260;2023-07-20T09:40:38;100883.00;;;22.60
71463;BMP180;59266;52.608;13.260;2023-07-20T09:43:09;100880.00;;;22.10
71463;BMP180;59266;52.608;13.260;2023-07-20T09:45:40;100882.00;;;22.30
71463;BMP180;59266;52.608;13.260;2023-07-20T09:48:11;100874.00;;;22.20
71463;BMP180;59266;52.608;13.260;2023-07-20T09:50:43;100876.00;;;22.70
71463;BMP180;59266;52.608;13.260;2023-07-20T09:53:18;100875.00;;;22.40
71463;BMP180;59266;52.608;13.260;2023-07-20T09:55:47;100885.00;;;22.70
71463;BMP180;59266;52.608;13.260;2023-07-20T09:58:15;100887.00;;;21.70
71463;BMP180;59266;52.608;13.260;2023-07-20T10:00:43;100890.00;;;21.30
71463;BMP180;59266;52.608;13.260;2023-07-20T10:03:18;100888.00;;;21.10
71463;BMP180;59266;52.608;13.260;2023-07-20T10:05:52;100888.00;;;21.30
71463;BMP180;59266;52.608;13.260;2023-07-20T10:08:24;100893.00;;;21.30
71463;BMP180;59266;52.608;13.260;2023-07-20T10:10:58;100892.00;;;21.20
71463;BMP180;59266;52.608;13.260;2023-07-20T10:13:30;100883.00;;;21.50
71463;BMP180;59266;52.608;13.260;2023-07-20T10:16:22;100889.00;;;21.90
71463;BMP180;59266;52.608;13.260;2023-07-20T10:19:07;100885.00;;;22.10
71463;BMP180;59266;52.608;13.260;2023-07-20T10:21:42;100874.00;;;21.60
71463;BMP180;59266;52.608;13.260;2023-07-20T10:24:21;100875.00;;;21.80
71463;BMP180;59266;52.608;13.260;2023-07-20T10:26:49;100869.00;;;22.50
71463;BMP180;59266;52.608;13.260;2023-07-20T10:29:18;100858.00;;;22.60
71463;BMP180;59266;52.608;13.260;2023-07-20T10:31:45;100867.00;;;22.50
71463;BMP180;59266;52.608;13.260;2023-07-20T10:34:12;100871.00;;;22.50
71463;BMP180;59266;52.608;13.260;2023-07-20T10:36:46;100867.00;;;22.10
71463;BMP180;59266;52.608;13.260;2023-07-20T10:39:22;100874.00;;;22.90
71463;BMP180;59266;52.608;13.260;2023-07-20T10:42:03;100870.00;;;22.80
71463;BMP180;59266;52.608;13.260;2023-07-20T10:44:30;100863.00;;;22.50
71463;BMP180;59266;52.608;13.260;2023-07-20T10:47:02;100859.00;;;23.30
71463;BMP180;59266;52.608;13.260;2023-07-20T10:49:35;100863.00;;;23.60
71463;BMP180;59266;52.608;13.260;2023-07-20T10:52:22;100855.00;;;23.70
71463;BMP180;59266;52.608;13.260;2023-07-20T10:54:49;100845.00;;;24.70
71463;BMP180;59266;52.608;13.260;2023-07-20T10:57:30;100829.00;;;25.40
71463;BMP180;59266;52.608;13.260;2023-07-20T11:00:11;100844.00;;;25.60
71463;BMP180;59266;52.608;13.260;2023-07-20T11:02:47;100864.00;;;25.80
71463;BMP180;59266;52.608;13.260;2023-07-20T11:05:33;100867.00;;;24.60
71463;BMP180;59266;52.608;13.260;2023-07-20T11:08:05;100862.00;;;23.80
71463;BMP180;59266;52.608;13.260;2023-07-20T11:10:32;100860.00;;;23.90
71463;BMP180;59266;52.608;13.260;2023-07-20T11:13:22;100836.00;;;24.70
71463;BMP180;59266;52.608;13.260;2023-07-20T11:18:26;100830.00;;;27.20
71463;BMP180;59266;52.608;13.260;2023-07-20T11:20:53;100852.00;;;27.00
71463;BMP180;59266;52.608;13.260;2023-07-20T11:23:20;100864.00;;;25.40
71463;BMP180;59266;52.608;13.260;2023-07-20T11:25:49;100870.00;;;24.50
71463;BMP180;59266;52.608;13.260;2023-07-20T11:28:16;100878.00;;;24.20
71463;BMP180;59266;52.608;13.260;2023-07-20T11:30:51;100890.00;;;23.20
71463;BMP180;59266;52.608;13.260;2023-07-20T11:33:18;100897.00;;;22.00
71463;BMP180;59266;52.608;13.260;2023-07-20T11:35:48;100900.00;;;21.90
71463;BMP180;59266;52.608;13.260;2023-07-20T11:38:17;100897.00;;;21.50
71463;BMP180;59266;52.608;13.260;2023-07-20T11:40:45;100904.00;;;21.00
71463;BMP180;59266;52.608;13.260;2023-07-20T11:43:13;100899.00;;;21.60
71463;BMP180;59266;52.608;13.260;2023-07-20T11:45:44;100904.00;;;21.60
71463;BMP180;59266;52.608;13.260;2023-07-20T11:48:16;100894.00;;;21.40
71463;BMP180;59266;52.608;13.260;2023-07-20T11:50:43;100887.00;;;21.20
71463;BMP180;59266;52.608;13.260;2023-07-20T11:53:10;100895.00;;;21.20
71463;BMP180;59266;52.608;13.260;2023-07-20T11:55:38;100896.00;;;21.70
71463;BMP180;59266;52.608;13.260;2023-07-20T11:58:06;100892.00;;;21.50
71463;BMP180;59266;52.608;13.260;2023-07-20T12:00:34;100892.00;;;21.70
71463;BMP180;59266;52.608;13.260;2023-07-20T12:03:01;100886.00;;;21.70
71463;BMP180;59266;52.608;13.260;2023-07-20T12:05:27;100883.00;;;22.20
71463;BMP180;59266;52.608;13.260;2023-07-20T12:07:54;100887.00;;;21.90
71463;BMP180;59266;52.608;13.260;2023-07-20T12:10:25;100877.00;;;22.30
71463;BMP180;59266;52.608;13.260;2023-07-20T12:12:52;100875.00;;;22.60
71463;BMP180;59266;52.608;13.260;2023-07-20T12:15:21;100886.00;;;23.20
71463;BMP180;59266;52.608;13.260;2023-07-20T12:17:51;100875.00;;;22.70
71463;BMP180;59266;52.608;13.260;2023-07-20T12:20:31;100873.00;;;22.80
71463;BMP180;59266;52.608;13.260;2023-07-20T12:23:03;100869.00;;;23.60
71463;BMP180;59266;52.608;13.260;2023-07-20T12:25:39;100848.00;;;24.10
71463;BMP180;59266;52.608;13.260;2023-07-20T12:28:11;100848.00;;;24.30
71463;BMP180;59266;52.608;13.260;2023-07-20T12:30:38;100845.00;;;24.40
71463;BMP180;59266;52.608;13.260;2023-07-20T12:33:07;100843.00;;;23.90
71463;BMP180;59266;52.608;13.260;2023-07-20T12:35:34;100830.00;;;24.10
71463;BMP180;59266;52.608;13.260;2023-07-20T12:38:01;100831.00;;;24.90
71463;BMP180;59266;52.608;13.260;2023-07-20T12:40:28;100826.00;;;24.40
71463;BMP180;59266;52.608;13.260;2023-07-20T12:42:55;100824.00;;;24.40
71463;BMP180;59266;52.608;13.260;2023-07-20T12:45:21;100830.00;;;25.00
71463;BMP180;59266;52.608;13.260;2023-07-20T12:47:48;100831.00;;;25.60
71463;BMP180;59266;52.608;13.260;2023-07-20T12:50:16;100828.00;;;25.70
71463;BMP180;59266;52.608;13.260;2023-07-20T12:52:43;100820.00;;;26.00
71463;BMP180;59266;52.608;13.260;2023-07-20T12:55:10;100826.00;;;26.00
71463;BMP180;59266;52.608;13.260;2023-07-20T12:57:37;100830.00;;;26.70
71463;BMP180;59266;52.608;13.260;2023-07-20T13:00:06;100820.00;;;26.80
71463;BMP180;59266;52.608;13.260;2023-07-20T13:02:37;100815.00;;;25.40
71463;BMP180;59266;52.608;13.260;2023-07-20T13:05:07;100813.00;;;25.90
71463;BMP180;59266;52.608;13.260;2023-07-20T13:07:35;100812.00;;;26.10
71463;BMP180;59266;52.608;13.260;2023-07-20T13:10:06;100813.00;;;26.80
71463;BMP180;59266;52.608;13.260;2023-07-20T13:12:36;100821.00;;;26.80
71463;BMP180;59266;52.608;13.260;2023-07-20T13:15:04;100819.00;;;26.80
71463;BMP180;59266;52.608;13.260;2023-07-20T13:17:37;100813.00;;;27.00
71463;BMP180;59266;52.608;13.260;2023-07-20T13:20:07;100813.00;;;26.90
71463;BMP180;59266;52.608;13.260;2023-07-20T13:22:36;100803.00;;;27.60
71463;BMP180;59266;52.608;13.260;2023-07-20T13:25:03;100806.00;;;27.70
71463;BMP180;59266;52.608;13.260;2023-07-20T13:27:29;100796.00;;;27.60
71463;BMP180;59266;52.608;13.260;2023-07-20T13:29:59;100793.00;;;27.30
71463;BMP180;59266;52.608;13.260;2023-07-20T13:32:29;100794.00;;;27.80
71463;BMP180;59266;52.608;13.260;2023-07-20T13:34:59;100796.00;;;27.70
71463;BMP180;59266;52.608;13.260;2023-07-20T13:37:26;100794.00;;;27.80
71463;BMP180;59266;52.608;13.260;2023-07-20T13:39:54;100799.00;;;27.90
71463;BMP180;59266;52.608;13.260;2023-07-20T13:42:22;100796.00;;;27.60
71463;BMP180;59266;52.608;13.260;2023-07-20T13:44:49;100791.00;;;27.40
71463;BMP180;59266;52.608;13.260;2023-07-20T13:47:16;100828.00;;;26.70
71463;BMP180;59266;52.608;13.260;2023-07-20T13:49:45;100788.00;;;26.60
71463;BMP180;59266;52.608;13.260;2023-07-20T13:52:14;100802.00;;;27.10
71463;BMP180;59266;52.608;13.260;2023-07-20T13:54:44;100818.00;;;26.40
71463;BMP180;59266;52.608;13.260;2023-07-20T13:57:14;100816.00;;;25.80
71463;BMP180;59266;52.608;13.260;2023-07-20T13:59:42;100790.00;;;26.40
71463;BMP180;59266;52.608;13.260;2023-07-20T14:02:09;100820.00;;;26.50